Time;durP1;ratioP1;P1;durP2;ratioP2;P2;SDS_P1;SDS_P2;PMS_P1;PMS_P2;Temp;Humidity;BMP_temperature;BMP_pressure;BME280_temperature;BME280_humidity;BME280_pressure;Samples;Min_cycle;Max_cycle;Signal;HPM_P1;HPM_P2
2022/04/22 00:00:23;;;;;;;9.63;5.15;;;;;;;;;;5033648;28;20033;-78
2022/04/22 00:02:50;;;;;;;19.80;5.50;;;;;;;;;;5034507;28;20537;-77
2022/04/22 00:05:17;;;;;;;8.52;5.85;;;;;;;;;;5033195;28;20076;-78
2022/04/22 00:07:43;;;;;;;19.27;5.50;;;;;;;;;;5035876;28;20025;-78
2022/04/22 00:10:10;;;;;;;11.77;6.13;;;;;;;;;;5041768;28;20034;-78
2022/04/22 00:12:37;;;;;;;9.35;5.20;;;;;;;;;;5034135;28;20053;-78
2022/04/22 00:15:03;;;;;;;11.82;5.80;;;;;;;;;;5013837;28;20389;-78
2022/04/22 00:17:29;;;;;;;11.40;5.93;;;;;;;;;;5026018;28;20071;-78
2022/04/22 00:19:55;;;;;;;12.57;5.43;;;;;;;;;;5032141;28;20025;-78
2022/04/22 00:22:21;;;;;;;13.20;5.25;;;;;;;;;;5032634;28;20026;-78
2022/04/22 00:24:47;;;;;;;13.25;5.28;;;;;;;;;;5030906;28;20469;-78
2022/04/22 00:27:13;;;;;;;10.82;5.78;;;;;;;;;;5032235;28;20032;-78
2022/04/22 00:29:39;;;;;;;11.43;5.57;;;;;;;;;;5031725;28;20152;-77
2022/04/22 00:32:06;;;;;;;14.63;5.60;;;;;;;;;;5016893;28;20038;-78
2022/04/22 00:34:32;;;;;;;12.85;5.80;;;;;;;;;;5030035;28;20080;-78
2022/04/22 00:36:58;;;;;;;11.13;5.63;;;;;;;;;;5034153;28;20386;-78
2022/04/22 00:39:24;;;;;;;12.02;6.10;;;;;;;;;;5034709;28;20485;-79
2022/04/22 00:41:50;;;;;;;12.88;5.90;;;;;;;;;;5031513;28;20511;-78
2022/04/22 00:44:16;;;;;;;8.52;5.43;;;;;;;;;;5034481;28;20350;-78
2022/04/22 00:46:42;;;;;;;9.13;5.78;;;;;;;;;;5031952;28;20483;-78
2022/04/22 00:49:08;;;;;;;12.18;6.00;;;;;;;;;;5016182;28;20097;-78
2022/04/22 00:51:34;;;;;;;13.20;6.07;;;;;;;;;;5043269;28;20041;-78
2022/04/22 00:54:02;;;;;;;12.73;5.95;;;;;;;;;;5033109;28;20057;-77
2022/04/22 00:56:29;;;;;;;15.35;6.88;;;;;;;;;;5029845;28;20367;-77
2022/04/22 00:58:57;;;;;;;14.98;6.65;;;;;;;;;;5033842;28;20029;-78
2022/04/22 01:01:24;;;;;;;15.10;6.45;;;;;;;;;;5032956;28;20037;-78
2022/04/22 01:12:08;;;;;;;15.07;6.35;;;;;;;;;;5031885;28;20092;-78
2022/04/22 01:14:35;;;;;;;16.63;8.23;;;;;;;;;;5033039;28;20432;-78
2022/04/22 01:17:01;;;;;;;15.93;7.38;;;;;;;;;;5029855;28;20657;-78
2022/04/22 01:19:27;;;;;;;8.80;5.82;;;;;;;;;;5034155;28;20034;-78
2022/04/22 01:21:53;;;;;;;12.73;6.93;;;;;;;;;;5029041;28;20490;-78
2022/04/22 01:24:19;;;;;;;13.57;6.07;;;;;;;;;;5032726;28;20045;-78
2022/04/22 01:26:46;;;;;;;14.90;7.43;;;;;;;;;;5031493;28;20037;-78
2022/04/22 01:29:14;;;;;;;20.23;6.72;;;;;;;;;;5032917;28;20033;-78
2022/04/22 01:31:40;;;;;;;11.25;6.82;;;;;;;;;;5028575;28;20029;-77
2022/04/22 01:34:06;;;;;;;12.48;6.00;;;;;;;;;;5033367;28;20041;-79
2022/04/22 01:36:32;;;;;;;17.67;6.90;;;;;;;;;;5030768;28;20034;-79
2022/04/22 01:38:58;;;;;;;16.20;7.35;;;;;;;;;;5048059;28;20025;-79
2022/04/22 01:41:24;;;;;;;15.95;6.95;;;;;;;;;;5026029;28;20049;-79
2022/04/22 01:43:50;;;;;;;14.50;7.00;;;;;;;;;;5017824;28;20030;-79
2022/04/22 01:46:16;;;;;;;12.13;6.97;;;;;;;;;;5021782;28;20061;-78
2022/04/22 01:48:43;;;;;;;15.75;7.55;;;;;;;;;;5033471;28;20029;-78
2022/04/22 01:51:09;;;;;;;12.15;7.32;;;;;;;;;;5028285;28;20084;-79
2022/04/22 01:53:35;;;;;;;16.50;7.30;;;;;;;;;;5026870;28;20041;-78
2022/04/22 01:56:01;;;;;;;11.27;7.13;;;;;;;;;;5032888;28;20100;-78
2022/04/22 01:58:27;;;;;;;16.77;7.45;;;;;;;;;;5030172;28;20439;-79
2022/04/22 02:00:53;;;;;;;13.25;7.03;;;;;;;;;;5032851;28;20041;-79
2022/04/22 02:03:19;;;;;;;18.73;7.72;;;;;;;;;;5031437;28;20033;-79
2022/04/22 02:05:46;;;;;;;13.52;6.68;;;;;;;;;;5033537;28;20064;-79
2022/04/22 02:08:13;;;;;;;14.02;6.60;;;;;;;;;;5033204;28;20032;-79
2022/04/22 02:10:41;;;;;;;13.88;6.93;;;;;;;;;;5033382;28;20041;-78
2022/04/22 02:13:08;;;;;;;12.73;7.40;;;;;;;;;;5028582;28;20403;-79
2022/04/22 02:15:34;;;;;;;11.32;6.55;;;;;;;;;;5032238;28;20029;-76
2022/04/22 02:18:00;;;;;;;17.17;7.45;;;;;;;;;;5030945;28;20057;-76
2022/04/22 02:20:26;;;;;;;17.33;7.50;;;;;;;;;;5031134;28;20041;-79
2022/04/22 02:22:52;;;;;;;12.73;6.95;;;;;;;;;;5030741;28;20052;-78
2022/04/22 02:25:18;;;;;;;11.07;6.93;;;;;;;;;;5029807;28;20065;-79
2022/04/22 02:30:30;;;;;;;18.77;7.22;;;;;;;;;;5027528;28;22496;-78
2022/04/22 02:32:56;;;;;;;11.98;6.82;;;;;;;;;;5028768;28;20025;-79
2022/04/22 02:35:22;;;;;;;10.93;6.63;;;;;;;;;;5007092;28;20040;-79
2022/04/22 02:37:49;;;;;;;18.95;9.50;;;;;;;;;;5031148;28;20026;-79
2022/04/22 02:45:55;;;;;;;9.88;5.75;;;;;;;;;;5019761;28;20477;-79
2022/04/22 02:48:21;;;;;;;15.38;6.53;;;;;;;;;;5030315;28;20481;-79
2022/04/22 02:50:47;;;;;;;18.70;6.30;;;;;;;;;;5031976;28;20037;-78
2022/04/22 02:53:14;;;;;;;13.55;6.50;;;;;;;;;;5028122;28;20032;-78
2022/04/22 02:55:45;;;;;;;15.27;6.68;;;;;;;;;;5016625;28;20105;-78
2022/04/22 02:58:11;;;;;;;13.25;6.82;;;;;;;;;;5026328;28;20033;-78
2022/04/22 03:00:37;;;;;;;13.23;6.32;;;;;;;;;;5030741;28;20037;-79
2022/04/22 03:03:03;;;;;;;12.00;6.22;;;;;;;;;;5030612;28;20113;-79
2022/04/22 03:05:29;;;;;;;10.38;5.72;;;;;;;;;;5013030;28;20034;-79
2022/04/22 03:07:55;;;;;;;12.93;6.38;;;;;;;;;;5016888;28;20528;-79
2022/04/22 03:10:21;;;;;;;11.40;6.25;;;;;;;;;;5031270;28;20465;-79
2022/04/22 03:12:47;;;;;;;17.02;6.88;;;;;;;;;;5030825;28;20049;-79
2022/04/22 03:15:16;;;;;;;13.27;6.15;;;;;;;;;;5012260;28;20049;-78
2022/04/22 03:17:42;;;;;;;8.50;5.82;;;;;;;;;;5012959;28;20049;-78
2022/04/22 03:20:09;;;;;;;12.65;6.20;;;;;;;;;;5027190;28;20045;-78
2022/04/22 03:22:36;;;;;;;10.77;5.68;;;;;;;;;;5023007;28;20033;-80
2022/04/22 03:25:02;;;;;;;12.77;6.40;;;;;;;;;;5030720;28;20053;-77
2022/04/22 03:27:28;;;;;;;11.80;5.80;;;;;;;;;;5030826;28;20473;-76
2022/04/22 03:29:54;;;;;;;10.27;5.40;;;;;;;;;;5026622;28;20453;-76
2022/04/22 03:32:20;;;;;;;12.07;6.25;;;;;;;;;;5029350;28;20424;-76
2022/04/22 03:34:46;;;;;;;14.13;6.45;;;;;;;;;;5028183;28;20034;-76
2022/04/22 03:37:12;;;;;;;10.93;6.00;;;;;;;;;;5019197;28;20099;-76
2022/04/22 03:39:38;;;;;;;10.40;5.75;;;;;;;;;;5030540;28;20061;-77
2022/04/22 03:42:04;;;;;;;10.50;6.50;;;;;;;;;;5013836;28;20436;-77
2022/04/22 03:44:30;;;;;;;11.80;5.97;;;;;;;;;;5030446;28;20029;-77
2022/04/22 03:46:56;;;;;;;12.80;6.28;;;;;;;;;;5042746;28;20041;-77
2022/04/22 03:49:22;;;;;;;11.13;5.55;;;;;;;;;;5030467;28;20091;-76
2022/04/22 03:51:48;;;;;;;7.90;5.30;;;;;;;;;;5026714;28;20028;-77
2022/04/22 03:54:18;;;;;;;15.05;6.10;;;;;;;;;;5031018;28;20464;-77
2022/04/22 03:59:29;;;;;;;12.38;5.15;;;;;;;;;;5028717;28;20048;-77
2022/04/22 04:01:57;;;;;;;10.85;5.22;;;;;;;;;;5028698;28;20061;-77
2022/04/22 04:04:23;;;;;;;10.63;6.10;;;;;;;;;;5022386;28;20525;-79
2022/04/22 04:06:49;;;;;;;14.55;6.53;;;;;;;;;;5008810;28;20065;-77
2022/04/22 04:17:35;;;;;;;10.90;5.30;;;;;;;;;;5030961;28;20044;-77
2022/04/22 04:25:30;;;;;;;8.60;5.10;;;;;;;;;;5027568;28;20060;-78
2022/04/22 04:27:56;;;;;;;15.55;5.75;;;;;;;;;;5031071;28;20125;-77
2022/04/22 04:30:23;;;;;;;10.13;5.20;;;;;;;;;;5031168;28;20034;-78
2022/04/22 04:32:50;;;;;;;9.48;4.95;;;;;;;;;;5024435;28;20389;-77
2022/04/22 04:35:16;;;;;;;10.10;4.85;;;;;;;;;;5032025;28;20397;-77
2022/04/22 04:37:42;;;;;;;8.63;4.72;;;;;;;;;;5026533;28;20029;-77
2022/04/22 04:40:11;;;;;;;13.80;5.57;;;;;;;;;;5030464;28;20072;-77
2022/04/22 04:42:37;;;;;;;17.10;5.80;;;;;;;;;;5029751;28;20037;-77
2022/04/22 04:45:04;;;;;;;15.00;5.88;;;;;;;;;;5033364;28;20037;-77
2022/04/22 04:47:31;;;;;;;7.13;4.93;;;;;;;;;;5015836;28;20053;-77
2022/04/22 04:49:57;;;;;;;12.98;5.78;;;;;;;;;;5022799;28;20143;-77
2022/04/22 04:52:23;;;;;;;10.85;5.30;;;;;;;;;;5022300;28;20044;-76
2022/04/22 04:54:51;;;;;;;10.05;5.72;;;;;;;;;;5014401;28;20037;-79
2022/04/22 04:57:19;;;;;;;13.05;6.05;;;;;;;;;;5032043;28;20088;-79
2022/04/22 04:59:45;;;;;;;9.40;4.80;;;;;;;;;;5034107;28;20531;-79
2022/04/22 05:02:12;;;;;;;8.52;4.93;;;;;;;;;;5034784;28;20044;-77
2022/04/22 05:04:38;;;;;;;8.93;5.15;;;;;;;;;;5031589;28;20440;-76
2022/04/22 05:07:04;;;;;;;11.15;5.03;;;;;;;;;;5033180;28;20021;-77
2022/04/22 05:09:30;;;;;;;14.65;4.75;;;;;;;;;;5049447;28;20032;-78
2022/04/22 05:11:56;;;;;;;11.77;5.38;;;;;;;;;;5029124;28;20036;-78
2022/04/22 05:14:25;;;;;;;6.88;5.13;;;;;;;;;;5046654;28;20041;-80
2022/04/22 05:16:51;;;;;;;9.50;5.50;;;;;;;;;;5031700;28;20556;-75
2022/04/22 05:19:19;;;;;;;10.40;5.20;;;;;;;;;;5026606;28;20087;-75
2022/04/22 05:21:45;;;;;;;11.80;5.45;;;;;;;;;;5031340;28;20045;-75
2022/04/22 05:24:11;;;;;;;14.13;7.63;;;;;;;;;;5025985;28;20030;-75
2022/04/22 05:26:37;;;;;;;8.85;5.25;;;;;;;;;;5025335;28;20442;-75
2022/04/22 05:29:03;;;;;;;15.45;7.57;;;;;;;;;;5032297;28;20480;-80
2022/04/22 05:34:14;;;;;;;5.95;4.15;;;;;;;;;;5021063;28;20079;-77
2022/04/22 05:36:40;;;;;;;10.20;5.18;;;;;;;;;;5029122;28;20026;-76
2022/04/22 05:39:08;;;;;;;8.05;4.75;;;;;;;;;;5030293;28;20466;-75
2022/04/22 05:41:35;;;;;;;7.75;4.63;;;;;;;;;;5032883;28;20584;-74
2022/04/22 05:44:04;;;;;;;7.00;4.70;;;;;;;;;;5030783;28;20041;-75
2022/04/22 05:46:30;;;;;;;9.57;4.60;;;;;;;;;;5030662;28;20025;-75
2022/04/22 05:48:56;;;;;;;7.72;5.15;;;;;;;;;;5022370;28;20037;-76
2022/04/22 05:51:22;;;;;;;7.68;4.20;;;;;;;;;;5028235;28;20099;-76
2022/04/22 05:53:49;;;;;;;8.85;4.82;;;;;;;;;;5031046;28;20036;-78
2022/04/22 05:56:15;;;;;;;12.10;6.63;;;;;;;;;;5031493;28;20025;-75
2022/04/22 05:58:41;;;;;;;12.90;6.82;;;;;;;;;;5030277;28;20033;-75
2022/04/22 06:01:07;;;;;;;7.25;5.13;;;;;;;;;;5030438;28;20117;-75
2022/04/22 06:03:33;;;;;;;9.18;4.75;;;;;;;;;;5028038;28;20040;-74
2022/04/22 06:05:59;;;;;;;9.32;4.25;;;;;;;;;;5031825;28;20038;-73
2022/04/22 06:11:10;;;;;;;9.57;4.90;;;;;;;;;;5030559;28;20144;-74
2022/04/22 06:13:37;;;;;;;9.40;4.35;;;;;;;;;;5031233;28;20462;-74
2022/04/22 06:16:03;;;;;;;8.40;4.90;;;;;;;;;;5048305;28;20037;-74
2022/04/22 06:18:29;;;;;;;6.82;3.88;;;;;;;;;;5009086;28;20148;-74
2022/04/22 06:20:55;;;;;;;9.75;4.65;;;;;;;;;;5013746;28;20038;-74
2022/04/22 06:23:21;;;;;;;6.90;3.38;;;;;;;;;;5021608;28;20418;-74
2022/04/22 06:25:48;;;;;;;23.67;13.80;;;;;;;;;;5025953;28;20065;-76
2022/04/22 06:28:14;;;;;;;14.70;9.05;;;;;;;;;;5028395;28;20034;-75
2022/04/22 06:30:41;;;;;;;8.20;3.28;;;;;;;;;;5029561;28;20044;-75
2022/04/22 06:33:07;;;;;;;4.97;3.28;;;;;;;;;;5032124;28;20029;-75
2022/04/22 06:35:33;;;;;;;8.20;2.78;;;;;;;;;;5013448;28;20037;-74
2022/04/22 06:38:01;;;;;;;4.43;2.60;;;;;;;;;;5032274;28;20478;-75
2022/04/22 06:45:59;;;;;;;7.18;2.67;;;;;;;;;;5030827;28;20095;-74
2022/04/22 06:48:27;;;;;;;6.80;2.60;;;;;;;;;;5031648;28;20053;-76
2022/04/22 06:50:56;;;;;;;14.43;7.72;;;;;;;;;;5029534;28;20040;-77
2022/04/22 06:53:22;;;;;;;5.05;3.60;;;;;;;;;;5028599;28;20037;-76
2022/04/22 06:55:48;;;;;;;7.35;2.83;;;;;;;;;;5024815;28;20048;-75
2022/04/22 06:58:15;;;;;;;3.78;2.45;;;;;;;;;;5024976;28;21516;-75
2022/04/22 07:00:42;;;;;;;5.93;2.63;;;;;;;;;;5026068;28;20512;-76
2022/04/22 07:03:09;;;;;;;7.60;2.80;;;;;;;;;;5032221;28;20048;-75
2022/04/22 07:05:36;;;;;;;11.30;2.33;;;;;;;;;;5011741;28;20060;-75
2022/04/22 07:08:06;;;;;;;6.50;2.40;;;;;;;;;;5027948;28;20034;-76
2022/04/22 07:10:32;;;;;;;20.33;12.07;;;;;;;;;;5012933;28;20040;-74
2022/04/22 07:12:59;;;;;;;10.05;5.03;;;;;;;;;;5031411;28;20064;-76
2022/04/22 07:15:25;;;;;;;6.07;2.00;;;;;;;;;;5012214;28;20025;-76
2022/04/22 07:17:51;;;;;;;3.67;1.90;;;;;;;;;;5029707;28;20048;-76
2022/04/22 07:20:18;;;;;;;5.18;1.80;;;;;;;;;;5009160;28;20033;-76
2022/04/22 07:22:44;;;;;;;2.72;1.83;;;;;;;;;;5006185;28;20060;-77
2022/04/22 07:25:10;;;;;;;4.38;2.10;;;;;;;;;;5005649;28;20061;-76
2022/04/22 07:27:41;;;;;;;5.60;1.92;;;;;;;;;;5022868;28;20026;-76
2022/04/22 07:30:11;;;;;;;7.55;1.67;;;;;;;;;;5027875;28;20041;-76
2022/04/22 07:32:41;;;;;;;5.18;1.80;;;;;;;;;;5012109;28;20060;-76
2022/04/22 07:35:13;;;;;;;3.35;1.73;;;;;;;;;;5044341;28;20053;-76
2022/04/22 07:37:39;;;;;;;3.42;2.05;;;;;;;;;;5030477;28;20025;-76
2022/04/22 07:40:06;;;;;;;3.20;1.80;;;;;;;;;;5004471;28;20029;-75
2022/04/22 07:42:33;;;;;;;9.93;1.80;;;;;;;;;;5022389;28;20029;-75
2022/04/22 07:47:47;;;;;;;4.38;1.63;;;;;;;;;;5017076;28;20397;-75
2022/04/22 07:50:13;;;;;;;4.90;1.48;;;;;;;;;;5016176;28;20025;-76
2022/04/22 07:52:40;;;;;;;3.75;1.95;;;;;;;;;;5025295;28;20072;-76
2022/04/22 07:55:06;;;;;;;5.93;1.70;;;;;;;;;;5018326;28;20081;-76
2022/04/22 07:57:32;;;;;;;5.97;3.35;;;;;;;;;;5022614;28;20657;-78
2022/04/22 07:59:58;;;;;;;8.80;3.65;;;;;;;;;;5021020;28;20029;-78
2022/04/22 08:02:25;;;;;;;5.07;1.55;;;;;;;;;;5018483;28;20041;-77
2022/04/22 08:04:51;;;;;;;4.32;1.50;;;;;;;;;;5027966;28;20402;-75
2022/04/22 08:07:18;;;;;;;3.70;1.58;;;;;;;;;;5013890;28;20029;-76
2022/04/22 08:09:45;;;;;;;3.78;1.48;;;;;;;;;;5012021;28;20608;-77
2022/04/22 08:12:13;;;;;;;4.00;1.40;;;;;;;;;;5011122;28;20033;-77
2022/04/22 08:14:39;;;;;;;6.60;1.60;;;;;;;;;;5034936;28;20034;-77
2022/04/22 08:17:05;;;;;;;8.45;1.50;;;;;;;;;;5034966;28;20428;-77
2022/04/22 08:19:31;;;;;;;4.07;1.20;;;;;;;;;;5035722;28;20033;-77
2022/04/22 08:21:57;;;;;;;6.68;1.42;;;;;;;;;;5037526;28;20124;-77
2022/04/22 08:24:24;;;;;;;2.35;1.60;;;;;;;;;;5027738;28;20164;-77
2022/04/22 08:26:50;;;;;;;6.18;1.52;;;;;;;;;;5014564;28;20620;-77
2022/04/22 08:29:17;;;;;;;5.45;1.67;;;;;;;;;;5017392;28;20032;-75
2022/04/22 08:31:43;;;;;;;2.20;1.60;;;;;;;;;;5025536;28;20039;-74
2022/04/22 08:34:09;;;;;;;2.97;1.40;;;;;;;;;;5031372;28;20048;-77
2022/04/22 08:36:36;;;;;;;7.53;2.63;;;;;;;;;;5014800;28;20029;-76
2022/04/22 08:39:02;;;;;;;4.80;1.90;;;;;;;;;;5016170;28;20036;-77
2022/04/22 08:41:28;;;;;;;3.85;1.55;;;;;;;;;;5024129;28;20420;-78
2022/04/22 08:43:58;;;;;;;5.70;1.90;;;;;;;;;;5020178;28;20030;-80
2022/04/22 08:51:56;;;;;;;7.65;1.92;;;;;;;;;;5020609;28;20048;-79
2022/04/22 08:54:22;;;;;;;3.13;1.30;;;;;;;;;;5016592;28;22046;-79
2022/04/22 08:56:52;;;;;;;5.55;2.10;;;;;;;;;;5037305;28;20025;-79
2022/04/22 08:59:18;;;;;;;4.63;1.90;;;;;;;;;;5031771;28;20064;-79
2022/04/22 09:01:44;;;;;;;3.58;1.75;;;;;;;;;;5029853;28;20045;-79
2022/04/22 09:04:10;;;;;;;6.85;1.50;;;;;;;;;;5034334;28;20379;-80
2022/04/22 09:06:37;;;;;;;4.95;1.85;;;;;;;;;;5004578;28;20041;-79
2022/04/22 09:09:07;;;;;;;2.95;1.63;;;;;;;;;;5033277;28;20026;-80
2022/04/22 09:11:43;;;;;;;3.35;1.70;;;;;;;;;;5025269;28;20037;-79
2022/04/22 09:14:09;;;;;;;4.57;1.25;;;;;;;;;;5033730;28;20131;-80
2022/04/22 09:16:35;;;;;;;5.20;1.40;;;;;;;;;;5034147;28;20029;-80
2022/04/22 09:19:03;;;;;;;6.47;1.65;;;;;;;;;;5028351;28;20474;-80
2022/04/22 09:21:29;;;;;;;5.57;1.27;;;;;;;;;;5014801;28;20087;-78
2022/04/22 09:23:56;;;;;;;3.38;1.50;;;;;;;;;;5015883;28;20026;-78
2022/04/22 09:26:24;;;;;;;4.07;1.30;;;;;;;;;;5034235;28;20446;-78
2022/04/22 09:29:03;;;;;;;4.15;1.40;;;;;;;;;;5026377;28;20058;-79
2022/04/22 09:31:30;;;;;;;10.00;1.75;;;;;;;;;;5011420;28;20084;-78
2022/04/22 09:33:57;;;;;;;1.67;1.20;;;;;;;;;;5010989;28;20026;-81
2022/04/22 09:44:54;;;;;;;4.65;1.63;;;;;;;;;;5005906;28;20739;-78
2022/04/22 09:47:20;;;;;;;3.45;1.58;;;;;;;;;;4988191;28;20026;-78
2022/04/22 09:49:47;;;;;;;6.70;1.40;;;;;;;;;;5002879;28;20034;-78
2022/04/22 09:52:13;;;;;;;4.18;1.45;;;;;;;;;;5009984;28;20042;-78
2022/04/22 09:54:39;;;;;;;3.65;1.42;;;;;;;;;;5010757;28;20773;-78
2022/04/22 09:57:06;;;;;;;4.80;1.60;;;;;;;;;;5008611;28;20033;-78
2022/04/22 09:59:33;;;;;;;5.95;1.60;;;;;;;;;;5012837;28;20472;-78
2022/04/22 10:02:04;;;;;;;6.15;1.52;;;;;;;;;;4993790;28;20037;-78
2022/04/22 10:04:32;;;;;;;5.40;1.27;;;;;;;;;;5014289;28;20148;-78
2022/04/22 10:07:00;;;;;;;3.55;1.50;;;;;;;;;;5008383;28;20116;-79
2022/04/22 10:09:27;;;;;;;8.13;5.28;;;;;;;;;;5007603;28;20161;-79
2022/04/22 10:11:54;;;;;;;5.65;3.15;;;;;;;;;;5011129;28;20053;-79
2022/04/22 10:14:24;;;;;;;5.75;1.50;;;;;;;;;;4993448;28;20414;-78
2022/04/22 10:16:50;;;;;;;2.30;1.30;;;;;;;;;;5008674;28;20100;-76
2022/04/22 10:19:17;;;;;;;5.20;1.83;;;;;;;;;;5012770;28;20030;-77
2022/04/22 10:21:44;;;;;;;5.60;2.08;;;;;;;;;;5010462;28;20041;-77
2022/04/22 10:24:13;;;;;;;5.10;1.65;;;;;;;;;;5012651;28;20025;-77
2022/04/22 10:26:40;;;;;;;2.72;1.80;;;;;;;;;;4988549;28;20054;-76
2022/04/22 10:29:06;;;;;;;5.65;1.55;;;;;;;;;;5008127;28;20076;-77
2022/04/22 10:31:33;;;;;;;2.65;1.50;;;;;;;;;;4988614;28;20114;-76
2022/04/22 10:34:06;;;;;;;2.50;1.83;;;;;;;;;;4995840;28;20030;-76
2022/04/22 10:36:33;;;;;;;2.35;1.33;;;;;;;;;;4989939;28;20036;-76
2022/04/22 10:38:59;;;;;;;5.85;1.85;;;;;;;;;;5007111;28;20050;-76
2022/04/22 10:41:25;;;;;;;2.50;1.70;;;;;;;;;;5007313;28;20125;-77
2022/04/22 10:49:50;;;;;;;4.95;1.90;;;;;;;;;;5008928;28;20100;-78
2022/04/22 10:52:21;;;;;;;3.10;1.58;;;;;;;;;;5008558;28;20029;-78
2022/04/22 10:54:52;;;;;;;4.60;1.80;;;;;;;;;;5009968;28;20101;-77
2022/04/22 10:57:35;;;;;;;6.03;1.77;;;;;;;;;;5007764;28;20113;-77
2022/04/22 11:00:02;;;;;;;5.47;1.60;;;;;;;;;;4995616;28;20036;-77
2022/04/22 11:02:32;;;;;;;8.02;1.95;;;;;;;;;;4990973;28;20042;-77
2022/04/22 11:05:20;;;;;;;6.80;1.70;;;;;;;;;;5007501;28;20034;-77
2022/04/22 11:07:57;;;;;;;12.88;7.95;;;;;;;;;;4999430;28;20076;-76
2022/04/22 11:10:23;;;;;;;5.05;2.22;;;;;;;;;;5008941;28;20037;-76
2022/04/22 11:13:02;;;;;;;5.15;1.50;;;;;;;;;;4988273;28;20379;-75
2022/04/22 11:15:43;;;;;;;3.28;2.05;;;;;;;;;;5000129;28;20037;-76
2022/04/22 11:18:13;;;;;;;8.53;2.97;;;;;;;;;;5012310;28;20033;-76
2022/04/22 11:20:43;;;;;;;5.93;2.10;;;;;;;;;;4990814;28;20030;-77
2022/04/22 11:23:13;;;;;;;5.85;1.90;;;;;;;;;;5008276;28;20098;-77
2022/04/22 11:25:41;;;;;;;8.20;1.83;;;;;;;;;;4999444;28;20393;-77
2022/04/22 11:28:07;;;;;;;3.97;2.00;;;;;;;;;;4998965;28;20022;-76
2022/04/22 11:30:34;;;;;;;7.18;2.28;;;;;;;;;;5003479;28;20026;-76
2022/04/22 11:33:03;;;;;;;3.55;1.83;;;;;;;;;;5008569;28;20047;-75
2022/04/22 11:35:35;;;;;;;21.40;11.20;;;;;;;;;;4998222;28;20033;-75
2022/04/22 11:38:04;;;;;;;10.07;3.97;;;;;;;;;;5001810;28;20034;-76
2022/04/22 11:40:35;;;;;;;4.45;2.83;;;;;;;;;;5008065;28;20033;-76
2022/04/22 11:43:11;;;;;;;6.75;2.40;;;;;;;;;;5003035;28;20038;-76
2022/04/22 11:45:38;;;;;;;5.93;2.25;;;;;;;;;;5005430;28;20038;-79
2022/04/22 11:48:07;;;;;;;6.60;2.25;;;;;;;;;;5008987;28;20029;-78
2022/04/22 11:50:40;;;;;;;3.40;2.50;;;;;;;;;;5008661;28;20022;-78
2022/04/22 11:53:20;;;;;;;8.60;2.47;;;;;;;;;;5021958;28;20034;-78
2022/04/22 11:55:49;;;;;;;4.30;2.38;;;;;;;;;;5018172;28;20011;-77
2022/04/22 11:58:16;;;;;;;3.03;2.08;;;;;;;;;;4992682;28;20038;-77
2022/04/22 12:06:16;;;;;;;3.10;2.08;;;;;;;;;;5009104;28;20052;-77
2022/04/22 12:08:51;;;;;;;4.40;2.53;;;;;;;;;;4994281;28;20483;-77
2022/04/22 12:11:17;;;;;;;4.93;2.60;;;;;;;;;;5000338;28;20038;-77
2022/04/22 12:13:45;;;;;;;5.50;2.50;;;;;;;;;;5005335;28;20536;-78
2022/04/22 12:16:11;;;;;;;7.78;2.10;;;;;;;;;;5009941;28;20702;-78
2022/04/22 12:18:39;;;;;;;7.57;2.53;;;;;;;;;;5010652;28;20040;-77
2022/04/22 12:21:06;;;;;;;6.68;2.40;;;;;;;;;;5010056;28;20076;-79
2022/04/22 12:23:33;;;;;;;4.65;2.30;;;;;;;;;;5007687;28;20030;-78
2022/04/22 12:26:00;;;;;;;4.10;2.75;;;;;;;;;;5002286;28;184237;-78
2022/04/22 12:28:26;;;;;;;6.32;2.80;;;;;;;;;;5026384;28;20539;-78
2022/04/22 12:30:53;;;;;;;3.72;2.40;;;;;;;;;;5014759;28;20037;-77
2022/04/22 12:33:23;;;;;;;3.97;2.78;;;;;;;;;;5027545;28;20025;-77
2022/04/22 12:35:49;;;;;;;3.17;2.20;;;;;;;;;;5029123;28;20438;-77
2022/04/22 12:38:17;;;;;;;7.60;2.90;;;;;;;;;;5029335;28;20037;-77
2022/04/22 12:40:45;;;;;;;4.78;2.17;;;;;;;;;;5030383;28;20038;-77
2022/04/22 12:43:27;;;;;;;4.47;2.67;;;;;;;;;;5030489;28;20484;-77
2022/04/22 12:54:12;;;;;;;7.50;2.40;;;;;;;;;;5037377;28;20036;-77
2022/04/22 12:56:38;;;;;;;5.72;2.47;;;;;;;;;;5025676;28;20401;-77
2022/04/22 12:59:06;;;;;;;4.93;2.60;;;;;;;;;;5015522;28;20033;-77
2022/04/22 13:01:36;;;;;;;4.15;2.35;;;;;;;;;;5033298;28;20377;-77
2022/04/22 13:04:03;;;;;;;3.78;2.30;;;;;;;;;;5033843;28;20084;-77
2022/04/22 13:06:36;;;;;;;2.42;2.10;;;;;;;;;;5032566;28;20030;-78
2022/04/22 13:09:03;;;;;;;3.58;2.80;;;;;;;;;;5013607;28;20183;-78
2022/04/22 13:11:29;;;;;;;6.43;2.83;;;;;;;;;;5027623;28;20026;-78
2022/04/22 13:13:56;;;;;;;6.40;2.63;;;;;;;;;;4996628;28;20478;-78
2022/04/22 13:16:23;;;;;;;4.80;2.55;;;;;;;;;;5005158;28;20037;-78
2022/04/22 13:18:49;;;;;;;5.60;2.63;;;;;;;;;;5034035;28;20417;-78
2022/04/22 13:21:15;;;;;;;6.25;2.88;;;;;;;;;;5025242;28;20040;-78
2022/04/22 13:23:41;;;;;;;8.80;2.63;;;;;;;;;;5023074;28;20038;-77
2022/04/22 13:26:08;;;;;;;8.13;2.70;;;;;;;;;;5033247;28;20060;-77
2022/04/22 13:28:34;;;;;;;7.60;3.30;;;;;;;;;;5021088;28;20075;-77
2022/04/22 13:31:00;;;;;;;4.63;2.65;;;;;;;;;;5032266;28;20040;-77
2022/04/22 13:33:31;;;;;;;5.65;2.83;;;;;;;;;;5011470;28;20029;-77
2022/04/22 13:36:01;;;;;;;7.47;2.88;;;;;;;;;;5016570;28;20022;-77
2022/04/22 13:38:27;;;;;;;7.13;2.83;;;;;;;;;;5033253;28;20101;-77
2022/04/22 13:40:53;;;;;;;5.97;2.75;;;;;;;;;;5031199;28;20041;-78
2022/04/22 13:43:19;;;;;;;5.25;3.08;;;;;;;;;;5033531;28;20021;-77
2022/04/22 13:53:59;;;;;;;8.93;3.33;;;;;;;;;;5046042;28;20040;-77
2022/04/22 13:56:25;;;;;;;5.65;3.70;;;;;;;;;;5023716;28;20464;-77
2022/04/22 13:58:52;;;;;;;6.63;3.20;;;;;;;;;;5026872;28;20091;-78
2022/04/22 14:01:18;;;;;;;8.35;3.33;;;;;;;;;;5014371;28;20041;-78
2022/04/22 14:03:44;;;;;;;5.15;2.72;;;;;;;;;;5032039;28;20117;-78
2022/04/22 14:06:10;;;;;;;4.53;3.05;;;;;;;;;;5030788;28;20057;-78
2022/04/22 14:08:37;;;;;;;4.65;3.33;;;;;;;;;;5014475;28;20069;-78
2022/04/22 14:11:04;;;;;;;11.18;3.28;;;;;;;;;;5020190;28;20046;-78
2022/04/22 14:13:31;;;;;;;10.45;3.35;;;;;;;;;;5033062;28;20026;-78
2022/04/22 14:15:57;;;;;;;5.72;3.38;;;;;;;;;;5031554;28;20025;-78
2022/04/22 14:18:23;;;;;;;6.68;3.30;;;;;;;;;;5015100;28;20032;-78
2022/04/22 14:20:49;;;;;;;8.02;4.03;;;;;;;;;;5027295;28;20445;-78
2022/04/22 14:23:15;;;;;;;6.68;3.70;;;;;;;;;;5029617;28;20378;-78
2022/04/22 14:25:41;;;;;;;10.13;3.35;;;;;;;;;;5003601;28;20413;-75
2022/04/22 14:28:07;;;;;;;5.13;3.45;;;;;;;;;;5026769;28;20385;-75
2022/04/22 14:30:33;;;;;;;16.23;3.75;;;;;;;;;;5019557;28;20729;-77
2022/04/22 14:33:00;;;;;;;4.55;3.17;;;;;;;;;;5026448;28;20038;-77
2022/04/22 14:35:26;;;;;;;7.22;3.75;;;;;;;;;;5024125;28;20037;-77
2022/04/22 14:37:54;;;;;;;7.78;4.40;;;;;;;;;;5024096;28;20033;-76
2022/04/22 14:40:20;;;;;;;8.57;3.47;;;;;;;;;;5023762;28;20036;-78
2022/04/22 14:42:47;;;;;;;7.30;3.58;;;;;;;;;;5024391;28;20049;-77
2022/04/22 14:45:14;;;;;;;6.88;4.43;;;;;;;;;;5018181;28;20175;-76
2022/04/22 14:47:40;;;;;;;7.68;4.60;;;;;;;;;;5026796;28;20076;-81
2022/04/22 14:50:08;;;;;;;6.10;3.30;;;;;;;;;;5022301;28;20025;-81
2022/04/22 14:52:34;;;;;;;7.65;3.28;;;;;;;;;;5019441;28;20041;-77
2022/04/22 14:55:00;;;;;;;5.45;3.67;;;;;;;;;;5031849;28;20386;-77
2022/04/22 14:57:26;;;;;;;9.48;3.72;;;;;;;;;;5041436;28;20032;-77
2022/04/22 14:59:53;;;;;;;6.60;3.53;;;;;;;;;;5017378;28;20626;-76
2022/04/22 15:02:19;;;;;;;6.30;3.30;;;;;;;;;;5033025;28;20029;-77
2022/04/22 15:04:45;;;;;;;7.25;3.08;;;;;;;;;;5033041;28;20037;-77
2022/04/22 15:07:12;;;;;;;6.05;3.30;;;;;;;;;;5030591;28;20029;-77
2022/04/22 15:09:38;;;;;;;10.88;3.45;;;;;;;;;;5012772;28;20029;-79
2022/04/22 15:12:06;;;;;;;12.50;6.38;;;;;;;;;;5025243;28;20029;-79
2022/04/22 15:14:32;;;;;;;13.75;8.85;;;;;;;;;;5023181;28;20041;-79
2022/04/22 15:16:58;;;;;;;5.68;2.97;;;;;;;;;;5009478;28;20025;-79
2022/04/22 15:24:09;;;;;;;5.25;3.03;;;;;;;;;;5024019;28;20037;-79
2022/04/22 15:25:04;;;;;;;4.68;3.03;;;;;;;;;;5017593;28;20473;-79
2022/04/22 15:27:31;;;;;;;5.30;2.90;;;;;;;;;;5006746;28;20382;-79
2022/04/22 15:29:57;;;;;;;7.80;3.65;;;;;;;;;;4999829;28;20133;-81
2022/04/22 15:32:24;;;;;;;6.50;3.40;;;;;;;;;;4985243;28;20081;-79
2022/04/22 15:34:50;;;;;;;12.10;3.78;;;;;;;;;;5004743;28;20497;-81
2022/04/22 15:37:16;;;;;;;4.68;3.33;;;;;;;;;;4989187;28;20034;-84
2022/04/22 15:39:45;;;;;;;8.75;3.65;;;;;;;;;;5006235;28;20041;-83
2022/04/22 15:42:11;;;;;;;7.80;3.20;;;;;;;;;;5000554;28;21779;-74
2022/04/22 15:44:41;;;;;;;10.70;3.50;;;;;;;;;;5005462;28;20080;-77
2022/04/22 15:47:08;;;;;;;9.88;4.13;;;;;;;;;;5004468;28;20506;-79
2022/04/22 15:49:34;;;;;;;9.85;6.15;;;;;;;;;;5008965;28;20501;-82
2022/04/22 15:52:00;;;;;;;8.02;4.72;;;;;;;;;;4987570;28;20057;-78
2022/04/22 15:54:26;;;;;;;7.53;3.50;;;;;;;;;;4997301;28;20045;-77
2022/04/22 15:56:52;;;;;;;5.10;3.28;;;;;;;;;;5001941;28;20113;-77
2022/04/22 15:59:19;;;;;;;9.05;3.60;;;;;;;;;;5002465;28;20041;-75
2022/04/22 16:01:45;;;;;;;6.05;2.80;;;;;;;;;;4987150;28;20033;-80
2022/04/22 16:04:12;;;;;;;4.85;3.22;;;;;;;;;;5001963;28;20126;-73
2022/04/22 16:06:40;;;;;;;5.68;2.55;;;;;;;;;;5003646;28;20364;-74
2022/04/22 16:09:06;;;;;;;6.22;2.90;;;;;;;;;;5003819;28;20073;-74